createdAt,value
2022-09-05T00:01:50.102Z,56.80
2022-09-05T00:04:08.363Z,56.70
2022-09-05T00:06:24.844Z,56.70
2022-09-05T00:08:45.254Z,56.80
2022-09-05T00:11:22.305Z,56.90
2022-09-05T00:13:16.436Z,56.90
2022-09-05T00:15:25.158Z,56.70
2022-09-05T00:18:31.102Z,56.80
2022-09-05T00:24:20.905Z,56.90
2022-09-05T00:24:34.977Z,56.90
2022-09-05T00:25:31.303Z,56.70
2022-09-05T00:27:52.022Z,57.00
2022-09-05T00:31:08.562Z,56.90
2022-09-05T00:32:40.788Z,56.90
2022-09-05T00:35:01.465Z,57.10
2022-09-05T00:37:03.190Z,57.20
2022-09-05T00:39:07.546Z,57.00
2022-09-05T00:41:11.073Z,57.20
2022-09-05T00:43:24.456Z,57.20
2022-09-05T00:45:32.716Z,57.10
2022-09-05T00:47:54.463Z,57.00
2022-09-05T00:49:59.989Z,57.20
2022-09-05T00:52:01.728Z,57.20
2022-09-05T00:54:09.523Z,57.20
2022-09-05T00:56:36.997Z,57.20
2022-09-05T00:58:56.214Z,57.10
2022-09-05T01:01:01.433Z,57.30
2022-09-05T01:03:22.013Z,57.20
2022-09-05T01:05:23.718Z,57.20
2022-09-05T01:07:38.001Z,57.10
2022-09-05T01:09:50.327Z,57.30
2022-09-05T01:12:02.565Z,57.30
2022-09-05T01:14:12.794Z,57.10
2022-09-05T01:16:17.677Z,57.30
2022-09-05T01:18:26.788Z,57.20
2022-09-05T01:20:38.233Z,57.30
2022-09-05T01:22:49.275Z,57.30
2022-09-05T01:25:02.089Z,57.40
2022-09-05T01:27:22.711Z,57.30
2022-09-05T01:29:27.610Z,57.20
2022-09-05T01:31:50.244Z,57.30
2022-09-05T01:33:57.141Z,57.50
2022-09-05T01:36:09.978Z,57.40
2022-09-05T01:38:23.800Z,57.50
2022-09-05T01:40:28.484Z,57.60
2022-09-05T01:42:45.593Z,57.60
2022-09-05T01:45:03.294Z,57.50
2022-09-05T01:47:09.638Z,57.50
2022-09-05T01:49:25.078Z,57.60
2022-09-05T01:51:51.500Z,57.40
2022-09-05T01:54:05.151Z,57.60
2022-09-05T01:56:17.712Z,57.60
2022-09-05T01:58:54.783Z,57.50
2022-09-05T02:01:31.698Z,57.70
2022-09-05T02:03:39.843Z,57.90
2022-09-05T02:05:51.723Z,57.90
2022-09-05T02:08:05.732Z,57.90
2022-09-05T02:10:32.869Z,57.80
2022-09-05T02:12:39.712Z,57.80
2022-09-05T02:15:04.464Z,57.90
2022-09-05T02:17:33.514Z,57.90
2022-09-05T02:19:43.616Z,57.90
2022-09-05T02:21:57.564Z,57.70
2022-09-05T02:24:06.686Z,57.90
2022-09-05T02:26:24.214Z,58.00
2022-09-05T02:28:44.730Z,57.80
2022-09-05T02:31:19.149Z,57.90
2022-09-05T02:33:20.531Z,58.00
2022-09-05T02:35:26.920Z,58.00
2022-09-05T02:38:43.936Z,58.10
2022-09-05T02:45:02.966Z,58.30
2022-09-05T02:45:14.651Z,58.00
2022-09-05T02:45:24.482Z,57.90
2022-09-05T02:47:26.102Z,58.00
2022-09-05T02:52:48.973Z,58.20
2022-09-05T02:57:25.701Z,58.30
2022-09-05T02:57:41.755Z,58.20
2022-09-05T02:58:04.118Z,58.10
2022-09-05T02:59:43.235Z,58.30
2022-09-05T03:02:05.714Z,58.20
2022-09-05T03:04:43.415Z,58.10
2022-09-05T03:06:47.088Z,58.40
2022-09-05T03:08:55.478Z,58.20
2022-09-05T03:10:58.812Z,58.20
2022-09-05T03:13:18.891Z,58.00
2022-09-05T03:15:54.746Z,58.30
2022-09-05T03:18:20.312Z,58.20
2022-09-05T03:20:25.766Z,58.30
2022-09-05T03:22:47.404Z,58.40
2022-09-05T03:24:56.221Z,58.30
2022-09-05T03:27:11.779Z,58.20
2022-09-05T03:29:32.303Z,58.20
2022-09-05T03:31:42.385Z,58.30
2022-09-05T03:33:59.324Z,58.50
2022-09-05T03:36:04.186Z,58.40
2022-09-05T03:38:18.058Z,58.20
2022-09-05T03:40:28.946Z,58.10
2022-09-05T03:42:39.633Z,58.30
2022-09-05T03:44:59.839Z,58.30
2022-09-05T03:47:13.162Z,58.40
2022-09-05T03:53:09.887Z,59.20
2022-09-05T03:57:14.030Z,58.50
2022-09-05T03:57:22.450Z,58.60
2022-09-05T03:57:25.712Z,58.40
2022-09-05T03:59:39.911Z,58.40
2022-09-05T04:03:09.181Z,58.60
2022-09-05T04:08:06.970Z,58.60
2022-09-05T04:08:31.880Z,58.40
2022-09-05T04:09:50.095Z,58.60
2022-09-05T04:11:55.517Z,58.40
2022-09-05T04:13:57.129Z,58.40
2022-09-05T04:16:11.160Z,58.30
2022-09-05T04:18:18.666Z,58.40
2022-09-05T04:20:40.876Z,58.60
2022-09-05T04:22:48.334Z,58.60
2022-09-05T04:25:13.399Z,58.70
2022-09-05T04:27:34.054Z,58.60
2022-09-05T04:29:49.306Z,58.30
2022-09-05T04:32:17.613Z,58.40
2022-09-05T04:34:31.821Z,58.60
2022-09-05T04:36:34.404Z,58.40
2022-09-05T04:38:37.691Z,58.60
2022-09-05T04:40:45.082Z,58.70
2022-09-05T04:42:46.948Z,58.70
2022-09-05T04:45:00.250Z,59.50
2022-09-05T04:47:22.181Z,58.80
2022-09-05T04:49:29.967Z,58.70
2022-09-05T04:51:46.847Z,58.80
2022-09-05T04:54:30.173Z,58.60
2022-09-05T04:56:34.946Z,58.80
2022-09-05T05:00:31.699Z,58.90
2022-09-05T05:06:09.962Z,58.80
2022-09-05T05:06:13.504Z,58.80
2022-09-05T05:06:18.349Z,58.70
2022-09-05T05:08:28.966Z,58.80
2022-09-05T05:17:23.866Z,58.80
2022-09-05T05:18:06.544Z,58.80
2022-09-05T05:18:12.951Z,59.00
2022-09-05T05:18:37.771Z,58.70
2022-09-05T05:20:42.881Z,58.90
2022-09-05T05:22:45.801Z,59.10
2022-09-05T05:24:49.814Z,59.70
2022-09-05T05:26:56.711Z,59.20
2022-09-05T05:29:02.777Z,59.10
2022-09-05T05:31:10.413Z,59.30
2022-09-05T05:33:35.462Z,59.30
2022-09-05T05:35:48.398Z,59.10
2022-09-05T05:37:53.651Z,59.40
2022-09-05T05:40:04.100Z,59.40
2022-09-05T05:42:20.756Z,59.50
2022-09-05T05:44:36.538Z,59.30
2022-09-05T05:46:39.437Z,59.40
2022-09-05T05:48:44.182Z,59.30
2022-09-05T05:51:13.355Z,59.40
2022-09-05T05:53:43.384Z,59.40
2022-09-05T05:56:04.521Z,59.40
2022-09-05T05:58:18.492Z,59.40
2022-09-05T06:00:27.945Z,59.40
2022-09-05T06:02:33.100Z,59.60
2022-09-05T06:04:44.915Z,59.50
2022-09-05T06:06:47.149Z,59.40
2022-09-05T06:13:46.055Z,59.50
2022-09-05T06:14:55.646Z,59.70
2022-09-05T06:14:59.698Z,59.70
2022-09-05T06:17:07.771Z,59.80
2022-09-05T06:19:12.658Z,59.70
2022-09-05T06:22:08.690Z,59.60
2022-09-05T06:23:54.211Z,59.60
2022-09-05T06:26:25.432Z,59.70
2022-09-05T06:28:35.917Z,59.70
2022-09-05T06:30:46.253Z,59.60
2022-09-05T06:32:56.700Z,59.50
2022-09-05T06:35:18.855Z,59.60
2022-09-05T06:37:35.942Z,59.60
2022-09-05T06:39:40.947Z,59.60
2022-09-05T06:41:51.257Z,59.50
2022-09-05T06:44:24.273Z,59.50
2022-09-05T06:46:54.815Z,59.50
2022-09-05T06:49:30.479Z,59.30
2022-09-05T06:51:23.520Z,59.50
2022-09-05T06:53:43.895Z,59.40
2022-09-05T06:55:59.372Z,59.50
2022-09-05T06:58:07.107Z,59.40
2022-09-05T07:00:29.404Z,59.50
2022-09-05T07:02:58.132Z,59.40
2022-09-05T07:05:37.170Z,59.40
2022-09-05T07:07:45.181Z,59.50
2022-09-05T07:10:22.157Z,59.50
2022-09-05T07:12:30.401Z,59.40
2022-09-05T07:14:36.131Z,59.30
2022-09-05T07:16:41.684Z,59.50
2022-09-05T07:18:54.431Z,59.40
2022-09-05T07:21:17.335Z,59.30
2022-09-05T07:24:05.795Z,59.30
2022-09-05T07:25:56.002Z,59.20
2022-09-05T07:28:27.122Z,59.40
2022-09-05T07:30:32.860Z,59.40
2022-09-05T07:32:41.855Z,59.40
2022-09-05T07:34:45.944Z,59.30
2022-09-05T07:36:49.862Z,59.20
2022-09-05T07:39:28.306Z,59.10
2022-09-05T07:41:32.527Z,58.90
2022-09-05T07:43:39.360Z,59.00
2022-09-05T07:45:55.368Z,59.10
2022-09-05T07:48:03.691Z,59.10
2022-09-05T07:50:54.604Z,59.10
2022-09-05T07:57:08.835Z,59.00
2022-09-05T07:57:13.062Z,58.80
2022-09-05T07:57:30.753Z,58.70
2022-09-05T07:59:35.028Z,58.60
2022-09-05T08:01:39.591Z,58.50
2022-09-05T08:03:43.378Z,58.50
2022-09-05T08:05:47.933Z,58.50
2022-09-05T08:07:52.016Z,58.40
2022-09-05T08:10:05.491Z,58.30
2022-09-05T08:12:16.161Z,58.30
2022-09-05T08:14:44.601Z,58.30
2022-09-05T08:16:46.488Z,58.30
2022-09-05T08:18:51.252Z,58.20
2022-09-05T08:20:57.859Z,58.00
2022-09-05T08:23:05.632Z,58.00
2022-09-05T08:25:18.481Z,58.00
2022-09-05T08:27:25.430Z,58.00
2022-09-05T08:29:33.954Z,58.00
2022-09-05T08:31:55.243Z,57.90
2022-09-05T08:33:58.228Z,58.00
2022-09-05T08:36:09.157Z,58.20
2022-09-05T08:38:13.424Z,57.90
2022-09-05T08:40:18.130Z,57.80
2022-09-05T08:42:19.880Z,57.80
2022-09-05T08:46:39.461Z,57.70
2022-09-05T08:47:00.338Z,57.70
2022-09-05T08:49:36.825Z,57.70
2022-09-05T08:51:54.076Z,57.60
2022-09-05T08:54:03.316Z,57.60
2022-09-05T08:56:17.056Z,57.50
2022-09-05T08:58:28.426Z,57.40
2022-09-05T09:00:35.909Z,57.40
2022-09-05T09:02:46.503Z,57.40
2022-09-05T09:05:03.093Z,57.30
2022-09-05T09:07:47.332Z,57.20
2022-09-05T09:09:32.495Z,57.20
2022-09-05T09:11:44.095Z,57.20
2022-09-05T09:13:56.467Z,57.80
2022-09-05T09:16:01.051Z,57.20
2022-09-05T09:18:10.607Z,57.10
2022-09-05T09:20:15.561Z,57.10
2022-09-05T09:22:26.204Z,57.00
2022-09-05T09:24:27.940Z,57.00
2022-09-05T09:26:34.951Z,56.90
2022-09-05T09:28:47.918Z,56.90
2022-09-05T09:30:57.475Z,56.90
2022-09-05T09:33:03.582Z,57.00
2022-09-05T09:35:13.359Z,57.10
2022-09-05T09:37:51.851Z,57.10
2022-09-05T09:39:54.450Z,57.10
2022-09-05T09:42:32.716Z,56.90
2022-09-05T09:44:52.285Z,57.00
2022-09-05T09:46:54.629Z,56.90
2022-09-05T09:49:22.922Z,56.80
2022-09-05T09:51:40.464Z,56.70
2022-09-05T09:54:04.097Z,56.70
2022-09-05T09:56:06.898Z,56.70
2022-09-05T09:58:08.758Z,56.60
2022-09-05T10:00:20.204Z,56.70
2022-09-05T10:02:42.910Z,56.50
2022-09-05T10:10:35.468Z,56.40
2022-09-05T10:10:44.578Z,56.30
2022-09-05T10:10:54.224Z,56.40
2022-09-05T10:13:08.070Z,56.40
2022-09-05T10:15:31.636Z,56.30
2022-09-05T10:18:04.854Z,56.30
2022-09-05T10:20:29.651Z,56.40
2022-09-05T10:22:43.717Z,56.40
2022-09-05T10:24:58.941Z,56.30
2022-09-05T10:27:20.913Z,56.10
2022-09-05T10:29:45.326Z,56.10
2022-09-05T10:34:56.506Z,56.00
2022-09-05T10:35:11.472Z,56.10
2022-09-05T10:36:52.523Z,55.80
2022-09-05T10:39:00.966Z,55.90
2022-09-05T10:41:21.231Z,55.80
2022-09-05T10:43:28.153Z,55.40
2022-09-05T10:45:52.822Z,55.80
2022-09-05T10:48:13.789Z,55.40
2022-09-05T10:50:29.285Z,55.30
2022-09-05T10:53:00.403Z,55.20
2022-09-05T10:55:14.030Z,55.20
2022-09-05T10:57:22.924Z,54.30
2022-09-05T11:02:16.276Z,54.90
2022-09-05T11:02:23.868Z,54.90
2022-09-05T11:04:15.289Z,55.00
2022-09-05T11:06:20.950Z,54.90
2022-09-05T11:08:36.106Z,55.10
2022-09-05T11:10:45.447Z,55.20
2022-09-05T11:13:05.263Z,55.00
2022-09-05T11:15:18.792Z,55.10
2022-09-05T11:17:20.457Z,54.80
2022-09-05T11:19:28.697Z,54.80
2022-09-05T11:21:49.015Z,54.90
2022-09-05T11:24:14.703Z,54.50
2022-09-05T11:26:19.430Z,54.40
2022-09-05T11:28:36.942Z,54.00
2022-09-05T11:30:43.678Z,54.30
2022-09-05T11:38:55.147Z,53.90
2022-09-05T11:39:31.118Z,54.20
2022-09-05T11:40:04.229Z,54.10
2022-09-05T11:40:28.994Z,53.70
2022-09-05T11:42:44.580Z,54.00
2022-09-05T11:45:02.855Z,53.90
2022-09-05T11:47:28.629Z,53.90
2022-09-05T11:49:32.444Z,54.00
2022-09-05T11:51:52.932Z,53.60
2022-09-05T11:54:00.181Z,53.30
2022-09-05T11:56:20.716Z,53.50
2022-09-05T11:58:44.635Z,53.50
2022-09-05T12:00:51.913Z,53.10
2022-09-05T12:03:41.431Z,52.20
2022-09-05T12:05:58.915Z,50.50
2022-09-05T12:08:04.771Z,50.20
2022-09-05T12:10:43.397Z,51.30
2022-09-05T12:12:44.966Z,51.20
2022-09-05T12:14:57.949Z,50.90
2022-09-05T12:17:20.583Z,51.00
2022-09-05T12:19:43.106Z,50.90
2022-09-05T12:22:10.130Z,51.30
2022-09-05T12:25:16.875Z,50.00
2022-09-05T12:27:41.161Z,51.10
2022-09-05T12:29:36.241Z,50.00
2022-09-05T12:33:24.316Z,50.60
2022-09-05T12:36:10.637Z,50.20
2022-09-05T12:40:27.586Z,49.80
2022-09-05T12:40:45.050Z,50.60
2022-09-05T12:42:11.440Z,49.80
2022-09-05T12:44:41.114Z,50.10
2022-09-05T12:46:36.013Z,49.40
2022-09-05T12:48:43.477Z,49.00
2022-09-05T12:51:00.521Z,48.70
2022-09-05T12:53:07.860Z,49.00
2022-09-05T12:55:13.403Z,49.10
2022-09-05T13:02:56.751Z,48.60
2022-09-05T13:02:57.218Z,48.60
2022-09-05T13:03:11.873Z,49.00
2022-09-05T13:04:32.485Z,48.60
2022-09-05T13:06:39.128Z,48.60
2022-09-05T13:08:59.014Z,47.90
2022-09-05T13:14:50.427Z,48.10
2022-09-05T13:14:53.865Z,47.60
2022-09-05T13:15:53.706Z,47.30
2022-09-05T13:18:14.992Z,48.00
2022-09-05T13:20:37.373Z,47.90
2022-09-05T13:22:40.104Z,48.00
2022-09-05T13:24:57.476Z,48.00
2022-09-05T13:27:13.796Z,47.50
2022-09-05T13:29:18.384Z,47.20
2022-09-05T13:38:03.244Z,47.20
2022-09-05T13:38:03.551Z,47.00
2022-09-05T13:38:16.291Z,47.20
2022-09-05T13:39:07.627Z,47.40
2022-09-05T13:41:26.957Z,47.20
2022-09-05T13:43:38.203Z,47.10
2022-09-05T13:45:53.458Z,47.30
2022-09-05T13:48:04.866Z,47.60
2022-09-05T13:50:27.193Z,48.20
2022-09-05T13:52:40.488Z,47.70
2022-09-05T13:54:50.265Z,47.40
2022-09-05T13:57:04.406Z,48.60
2022-09-05T13:59:09.046Z,47.70
2022-09-05T14:01:11.603Z,47.30
2022-09-05T14:03:39.247Z,47.20
2022-09-05T14:05:52.100Z,47.40
2022-09-05T14:07:53.860Z,47.30
2022-09-05T14:10:11.447Z,47.40
2022-09-05T14:12:29.293Z,47.70
2022-09-05T14:19:45.969Z,47.10
2022-09-05T14:21:49.320Z,46.70
2022-09-05T14:24:03.272Z,46.40
2022-09-05T14:26:14.893Z,45.70
2022-09-05T14:28:55.854Z,45.90
2022-09-05T14:37:01.904Z,45.80
2022-09-05T14:37:43.360Z,46.00
2022-09-05T14:37:48.279Z,45.90
2022-09-05T14:38:58.906Z,45.50
2022-09-05T14:41:29.532Z,45.40
2022-09-05T14:43:34.233Z,45.50
2022-09-05T14:46:00.316Z,44.70
2022-09-05T14:48:14.569Z,44.90
2022-09-05T14:50:23.163Z,44.80
2022-09-05T14:52:31.375Z,44.50
2022-09-05T15:01:53.387Z,44.20
2022-09-05T15:02:50.349Z,44.10
2022-09-05T15:02:52.381Z,43.80
2022-09-05T15:06:33.339Z,42.90
2022-09-05T15:11:15.229Z,43.10
2022-09-05T15:12:24.882Z,43.30
2022-09-05T15:13:25.694Z,43.20
2022-09-05T15:15:28.980Z,43.10
2022-09-05T15:17:30.941Z,43.10
2022-09-05T15:20:07.785Z,42.30
2022-09-05T15:22:39.645Z,42.90
2022-09-05T15:24:41.306Z,42.70
2022-09-05T15:26:56.725Z,42.40
2022-09-05T15:29:13.582Z,42.60
2022-09-05T15:31:19.187Z,42.60
2022-09-05T15:33:25.854Z,42.40
2022-09-05T15:35:35.420Z,42.70
2022-09-05T15:37:40.276Z,42.50
2022-09-05T15:39:41.969Z,42.80
2022-09-05T15:41:44.005Z,42.80
2022-09-05T15:43:58.150Z,42.10
2022-09-05T15:46:03.622Z,42.00
2022-09-05T15:48:12.811Z,42.00
2022-09-05T15:50:21.850Z,42.00
2022-09-05T15:52:28.743Z,41.90
2022-09-05T15:54:40.324Z,41.60
2022-09-05T15:56:46.116Z,41.80
2022-09-05T15:58:53.988Z,41.00
2022-09-05T16:00:56.507Z,41.50
2022-09-05T16:03:27.103Z,41.60
2022-09-05T16:10:27.712Z,40.80
2022-09-05T16:10:46.930Z,40.60
2022-09-05T16:10:50.978Z,41.00
2022-09-05T16:12:32.435Z,40.70
2022-09-05T16:14:45.164Z,40.40
2022-09-05T16:23:18.886Z,40.40
2022-09-05T16:23:24.621Z,40.00
2022-09-05T16:23:28.980Z,40.10
2022-09-05T16:24:59.393Z,40.00
2022-09-05T16:27:04.671Z,40.10
2022-09-05T16:29:10.466Z,40.20
2022-09-05T16:31:24.930Z,40.50
2022-09-05T16:33:30.924Z,40.60
2022-09-05T16:35:35.771Z,40.50
2022-09-05T16:37:43.278Z,40.60
2022-09-05T16:39:49.455Z,40.70
2022-09-05T16:41:51.203Z,41.00
2022-09-05T16:43:56.721Z,41.10
2022-09-05T16:46:07.008Z,41.10
2022-09-05T16:48:20.929Z,41.10
2022-09-05T16:50:37.839Z,41.00
2022-09-05T16:52:53.266Z,41.10
2022-09-05T16:55:00.997Z,41.30
2022-09-05T16:57:05.535Z,41.30
2022-09-05T16:59:09.606Z,41.50
2022-09-05T17:01:11.726Z,41.80
2022-09-05T17:03:28.959Z,42.10
2022-09-05T17:05:46.400Z,42.20
2022-09-05T17:08:06.440Z,42.30
2022-09-05T17:10:09.615Z,43.20
2022-09-05T17:12:19.033Z,42.70
2022-09-05T17:14:24.986Z,42.80
2022-09-05T17:16:34.566Z,43.00
2022-09-05T17:18:37.445Z,43.10
2022-09-05T17:20:40.072Z,43.30
2022-09-05T17:28:59.926Z,43.50
2022-09-05T17:29:27.605Z,43.70
2022-09-05T17:29:28.582Z,43.60
2022-09-05T17:32:38.368Z,43.80
2022-09-05T17:34:49.438Z,44.00
2022-09-05T17:36:57.812Z,44.10
2022-09-05T17:39:02.203Z,44.20
2022-09-05T17:41:22.710Z,44.20
2022-09-05T17:43:28.574Z,44.30
2022-09-05T17:45:44.775Z,44.30
2022-09-05T17:47:48.361Z,44.30
2022-09-05T17:50:09.800Z,44.40
2022-09-05T17:52:18.114Z,44.50
2022-09-05T17:54:20.191Z,44.50
2022-09-05T17:56:38.226Z,44.70
2022-09-05T17:58:59.827Z,44.90
2022-09-05T18:01:05.439Z,44.70
2022-09-05T18:03:07.308Z,44.80
2022-09-05T18:05:29.006Z,44.90
2022-09-05T18:07:51.871Z,44.80
2022-09-05T18:10:15.435Z,44.90
2022-09-05T18:13:12.785Z,45.10
2022-09-05T18:15:04.753Z,45.20
2022-09-05T18:17:36.709Z,45.20
2022-09-05T18:19:45.725Z,45.00
2022-09-05T18:21:48.257Z,44.80
2022-09-05T18:23:54.354Z,45.00
2022-09-05T18:25:56.651Z,45.00
2022-09-05T18:28:17.349Z,45.80
2022-09-05T18:30:20.505Z,45.10
2022-09-05T18:32:40.789Z,45.30
2022-09-05T18:34:43.067Z,45.30
2022-09-05T18:36:48.742Z,45.40
2022-09-05T18:39:10.723Z,45.40
2022-09-05T18:41:14.637Z,45.30
2022-09-05T18:43:16.394Z,45.30
2022-09-05T18:45:18.325Z,45.20
2022-09-05T18:47:34.120Z,45.30
2022-09-05T18:50:24.078Z,45.10
2022-09-05T18:52:23.225Z,45.20
2022-09-05T18:54:26.835Z,46.10
2022-09-05T18:56:31.749Z,45.50
2022-09-05T18:58:35.596Z,45.60
2022-09-05T19:00:44.590Z,45.70
2022-09-05T19:02:58.905Z,45.50
2022-09-05T19:05:02.578Z,45.30
2022-09-05T19:07:07.824Z,45.30
2022-09-05T19:09:14.187Z,45.30
2022-09-05T19:11:28.285Z,45.60
2022-09-05T19:13:31.834Z,45.60
2022-09-05T19:15:36.403Z,45.60
2022-09-05T19:17:47.361Z,45.80
2022-09-05T19:20:30.693Z,45.80
2022-09-05T19:23:08.999Z,45.70
2022-09-05T19:24:50.133Z,45.80
2022-09-05T19:26:56.888Z,45.80
2022-09-05T19:36:49.282Z,45.60
2022-09-05T19:36:50.139Z,45.90
2022-09-05T19:36:53.308Z,45.70
2022-09-05T19:37:12.159Z,45.70
2022-09-05T19:40:32.167Z,45.90
2022-09-05T19:47:25.612Z,45.80
2022-09-05T19:47:48.705Z,45.60
2022-09-05T19:47:49.840Z,45.40
2022-09-05T19:48:42.348Z,45.80
2022-09-05T19:50:44.751Z,45.90
2022-09-05T19:52:48.864Z,46.10
2022-09-05T19:54:51.758Z,46.00
2022-09-05T19:57:01.454Z,46.10
2022-09-05T19:59:14.370Z,46.20
2022-09-05T20:01:17.939Z,46.20
2022-09-05T20:03:20.854Z,46.20
2022-09-05T20:05:22.875Z,46.20
2022-09-05T20:07:29.816Z,46.20
2022-09-05T20:09:37.483Z,46.20
2022-09-05T20:11:45.590Z,46.20
2022-09-05T20:13:47.813Z,46.30
2022-09-05T20:15:50.006Z,46.30
2022-09-05T20:17:53.563Z,46.10
2022-09-05T20:20:13.838Z,46.10
2022-09-05T20:22:49.783Z,46.10
2022-09-05T20:24:41.597Z,46.10
2022-09-05T20:26:44.779Z,46.40
2022-09-05T20:28:53.976Z,46.40
2022-09-05T20:31:01.740Z,46.40
2022-09-05T20:33:07.168Z,46.60
2022-09-05T20:38:09.042Z,46.60
2022-09-05T20:43:11.996Z,46.70
2022-09-05T20:43:25.331Z,46.60
2022-09-05T20:43:29.180Z,46.50
2022-09-05T20:44:51.707Z,46.50
2022-09-05T20:49:32.427Z,46.70
2022-09-05T20:54:14.454Z,46.80
2022-09-05T20:54:21.521Z,46.60
2022-09-05T20:54:31.696Z,46.60
2022-09-05T20:56:30.813Z,46.50
2022-09-05T20:58:33.697Z,46.50
2022-09-05T21:00:36.944Z,46.50
2022-09-05T21:02:48.492Z,47.20
2022-09-05T21:05:20.622Z,46.50
2022-09-05T21:07:25.357Z,46.70
2022-09-05T21:09:29.373Z,46.80
2022-09-05T21:11:32.622Z,46.80
2022-09-05T21:13:34.409Z,47.00
2022-09-05T21:15:53.534Z,46.90
2022-09-05T21:18:01.372Z,46.90
2022-09-05T21:20:08.940Z,47.10
2022-09-05T21:22:16.671Z,47.20
2022-09-05T21:24:22.315Z,47.20
2022-09-05T21:26:24.447Z,47.20
2022-09-05T21:28:36.340Z,47.30
2022-09-05T21:30:40.416Z,47.60
2022-09-05T21:32:42.158Z,47.50
2022-09-05T21:34:53.667Z,47.40
2022-09-05T21:37:01.401Z,47.30
2022-09-05T21:39:09.538Z,47.40
2022-09-05T21:41:15.816Z,47.50
2022-09-05T21:47:34.093Z,47.50
2022-09-05T21:47:39.618Z,47.60
2022-09-05T21:48:03.204Z,47.70
2022-09-05T21:50:05.286Z,47.50
2022-09-05T21:52:08.127Z,47.80
2022-09-05T21:59:20.863Z,47.70
2022-09-05T21:59:28.594Z,47.70
2022-09-05T21:59:29.949Z,47.90
2022-09-05T22:01:51.719Z,47.80
2022-09-05T22:03:47.099Z,47.80
2022-09-05T22:05:49.412Z,47.80
2022-09-05T22:07:53.368Z,48.00
2022-09-05T22:09:56.572Z,47.70
2022-09-05T22:11:58.363Z,47.80
2022-09-05T22:14:00.108Z,47.90
2022-09-05T22:16:04.818Z,48.00
2022-09-05T22:18:17.643Z,48.00
2022-09-05T22:20:28.936Z,48.00
2022-09-05T22:22:30.830Z,48.00
2022-09-05T22:24:34.699Z,48.10
2022-09-05T22:26:44.796Z,48.00
2022-09-05T22:29:05.051Z,47.90
2022-09-05T22:31:07.228Z,48.10
2022-09-05T22:33:10.152Z,48.10
2022-09-05T22:35:28.071Z,48.20
2022-09-05T22:37:30.660Z,48.30
2022-09-05T22:39:37.016Z,48.30
2022-09-05T22:41:39.851Z,48.40
2022-09-05T22:43:41.527Z,48.60
2022-09-05T22:45:43.219Z,48.80
2022-09-05T22:47:44.899Z,48.70
2022-09-05T22:49:46.620Z,48.80
2022-09-05T22:51:48.323Z,48.70
2022-09-05T22:53:49.995Z,48.90
2022-09-05T22:55:55.961Z,49.00
2022-09-05T22:57:57.655Z,49.10
2022-09-05T22:59:59.364Z,49.00
2022-09-05T23:02:01.162Z,49.10
2022-09-05T23:04:03.169Z,49.10
2022-09-05T23:06:06.045Z,49.30
2022-09-05T23:08:09.863Z,49.30
2022-09-05T23:10:11.589Z,49.50
2022-09-05T23:12:13.255Z,49.50
2022-09-05T23:14:14.972Z,49.60
2022-09-05T23:16:16.770Z,49.70
2022-09-05T23:18:18.513Z,49.70
2022-09-05T23:20:20.227Z,49.80
2022-09-05T23:22:21.872Z,49.80
2022-09-05T23:24:23.698Z,49.80
2022-09-05T23:26:25.764Z,49.70
2022-09-05T23:28:27.618Z,49.80
2022-09-05T23:30:29.337Z,49.80
2022-09-05T23:32:31.028Z,49.90
2022-09-05T23:34:35.493Z,50.10
2022-09-05T23:36:37.218Z,50.10
2022-09-05T23:38:40.563Z,49.90
2022-09-05T23:40:42.285Z,50.10
2022-09-05T23:42:57.467Z,50.10
2022-09-05T23:44:59.320Z,50.00
2022-09-05T23:47:01.069Z,49.90
2022-09-05T23:49:02.775Z,50.30
2022-09-05T23:51:05.988Z,50.20
2022-09-05T23:53:08.209Z,50.20
2022-09-05T23:55:10.556Z,50.20
2022-09-05T23:57:12.258Z,50.40
2022-09-05T23:59:14.017Z,50.40
